createdAt,value
2023-04-21T00:01:50.832Z,53.2
2023-04-21T00:07:08.956Z,53.2
2023-04-21T00:12:27.500Z,53.1
2023-04-21T00:17:45.802Z,53.2
2023-04-21T00:23:04.159Z,52.8
2023-04-21T00:28:22.340Z,52.9
2023-04-21T00:33:40.500Z,52.6
2023-04-21T00:38:58.851Z,53.5
2023-04-21T00:44:17.429Z,52.5
2023-04-21T00:49:35.822Z,53.3
2023-04-21T00:54:54.164Z,53.1
2023-04-21T01:00:12.368Z,53.4
2023-04-21T01:05:30.711Z,52.5
2023-04-21T01:10:49.090Z,52.4
2023-04-21T01:16:07.548Z,52.3
2023-04-21T01:21:25.597Z,53.3
2023-04-21T01:26:43.919Z,52.6
2023-04-21T01:32:02.326Z,52.4
2023-04-21T01:37:20.800Z,53.4
2023-04-21T01:42:39.314Z,52.7
2023-04-21T01:47:57.819Z,53.2
2023-04-21T01:53:16.361Z,52.9
2023-04-21T01:58:34.276Z,52.3
2023-04-21T02:03:53.298Z,52.6
2023-04-21T02:09:11.658Z,52.5
2023-04-21T02:14:29.992Z,53.3
2023-04-21T02:19:48.536Z,52.3
2023-04-21T02:25:06.951Z,52.5
2023-04-21T02:30:25.327Z,52.6
2023-04-21T02:35:43.697Z,53.2
2023-04-21T02:41:02.021Z,53
2023-04-21T02:46:20.594Z,52.6
2023-04-21T02:51:38.789Z,52.5
2023-04-21T02:56:56.962Z,52.8
2023-04-21T03:02:15.253Z,53.2
2023-04-21T03:07:33.948Z,53.4
2023-04-21T03:12:51.988Z,53.5
2023-04-21T03:17:54.761Z,52.6
2023-04-21T03:23:13.299Z,53
2023-04-21T03:28:31.682Z,53.5
2023-04-21T03:33:50.033Z,52.8
2023-04-21T03:39:21.116Z,53.2
2023-04-21T03:44:39.503Z,53.1
2023-04-21T03:49:57.954Z,52.1
2023-04-21T03:55:16.210Z,51.9
2023-04-21T04:00:34.426Z,51.8
2023-04-21T04:05:37.111Z,52.5
2023-04-21T04:10:55.800Z,52
2023-04-21T04:16:14.234Z,51.7
2023-04-21T04:21:32.178Z,51.5
2023-04-21T04:26:50.602Z,52.6
2023-04-21T04:32:09.013Z,51.7
2023-04-21T04:37:27.170Z,52.2
2023-04-21T04:42:45.972Z,47
2023-04-21T04:48:04.221Z,44.4
2023-04-21T04:53:22.567Z,44
2023-04-21T04:58:41.161Z,46.8
2023-04-21T05:04:00.337Z,47.1
2023-04-21T05:09:18.818Z,48
2023-04-21T05:14:37.413Z,47.8
2023-04-21T05:19:55.333Z,48.5
2023-04-21T05:25:13.303Z,48.7
2023-04-21T05:30:31.462Z,48.3
2023-04-21T05:35:50.019Z,48.5
2023-04-21T05:41:08.389Z,49.4
2023-04-21T05:46:26.750Z,48.6
2023-04-21T05:51:45.234Z,48.7
2023-04-21T05:57:03.361Z,49
2023-04-21T06:02:22.046Z,48.8
2023-04-21T06:07:40.568Z,49.6
2023-04-21T06:12:59.158Z,49.1
2023-04-21T06:18:17.734Z,48.7
2023-04-21T06:23:36.106Z,49.6
2023-04-21T06:28:54.428Z,48.8
2023-04-21T06:34:12.964Z,49.3
2023-04-21T06:39:31.305Z,49.3
2023-04-21T06:44:51.692Z,49.8
2023-04-21T06:50:10.078Z,49.8
2023-04-21T06:55:28.453Z,49.8
2023-04-21T07:00:47.156Z,49.8
2023-04-21T07:06:05.472Z,49.3
2023-04-21T07:11:23.804Z,49
2023-04-21T07:16:42.168Z,49.2
2023-04-21T07:22:00.383Z,49.7
2023-04-21T07:27:18.555Z,49.1
2023-04-21T07:32:36.795Z,49.6
2023-04-21T07:37:54.836Z,48.8
2023-04-21T07:43:12.983Z,49.6
2023-04-21T07:48:31.113Z,49.5
2023-04-21T07:53:49.505Z,48.8
2023-04-21T07:59:07.898Z,49.4
2023-04-21T08:04:27.108Z,48.7
2023-04-21T08:09:45.759Z,49.3
2023-04-21T08:15:04.424Z,49.3
2023-04-21T08:20:22.878Z,48.5
2023-04-21T08:25:41.213Z,49.2
2023-04-21T08:30:59.936Z,48.5
2023-04-21T08:36:30.886Z,49.1
2023-04-21T08:41:49.078Z,49.3
2023-04-21T08:47:07.457Z,48.4
2023-04-21T08:52:25.992Z,49
2023-04-21T08:57:44.578Z,48.4
2023-04-21T09:03:10.782Z,48.4
2023-04-21T09:08:34.542Z,48.7
2023-04-21T09:13:52.751Z,48.9
2023-04-21T09:19:11.238Z,48.5
2023-04-21T09:24:29.572Z,48.5
2023-04-21T09:29:48.001Z,47.9
2023-04-21T09:35:06.240Z,48.5
2023-04-21T09:40:24.583Z,48
2023-04-21T09:45:42.792Z,48.7
2023-04-21T09:51:37.232Z,48
2023-04-21T09:57:00.398Z,48
2023-04-21T10:02:19.659Z,48.1
2023-04-21T10:07:38.060Z,48.8
2023-04-21T10:12:56.199Z,47.9
2023-04-21T10:18:14.399Z,47.8
2023-04-21T10:23:32.577Z,48.4
2023-04-21T10:28:50.906Z,48.6
2023-04-21T10:34:09.157Z,47.9
2023-04-21T10:39:27.472Z,48.8
2023-04-21T10:44:45.802Z,48.3
2023-04-21T10:50:03.993Z,48.7
2023-04-21T10:55:22.113Z,47.7
2023-04-21T11:00:40.423Z,47.9
2023-04-21T11:05:58.815Z,48.2
2023-04-21T11:11:17.165Z,47.7
2023-04-21T11:16:35.551Z,48.4
2023-04-21T11:21:53.918Z,48.4
2023-04-21T11:27:12.310Z,47.6
2023-04-21T11:32:30.562Z,48.4
2023-04-21T11:37:48.890Z,47.5
2023-04-21T11:43:07.546Z,48.2
2023-04-21T11:48:26.069Z,48.3
2023-04-21T11:53:44.315Z,47.5
2023-04-21T11:59:02.639Z,48.3
2023-04-21T12:04:22.079Z,47.5
2023-04-21T12:09:40.610Z,47.6
2023-04-21T12:14:59.054Z,47.7
2023-04-21T12:20:01.353Z,48.4
2023-04-21T12:25:20.172Z,48.2
2023-04-21T12:30:23.082Z,47.7
2023-04-21T12:35:41.559Z,48.2
2023-04-21T12:40:44.609Z,48.1
2023-04-21T12:46:03.168Z,47.2
2023-04-21T12:51:21.547Z,47.4
2023-04-21T12:56:40.226Z,48.1
2023-04-21T13:01:43.270Z,47.9
2023-04-21T13:07:01.987Z,48.2
2023-04-21T13:12:20.355Z,47.3
2023-04-21T13:17:38.958Z,47.3
2023-04-21T13:22:57.134Z,47.4
2023-04-21T13:28:15.812Z,47.6
2023-04-21T13:33:34.059Z,48
2023-04-21T13:38:52.436Z,48.2
2023-04-21T13:44:10.899Z,48
2023-04-21T13:49:29.572Z,47.6
2023-04-21T13:54:48.166Z,48.4
2023-04-21T14:00:06.410Z,48.5
2023-04-21T14:05:25.494Z,49
2023-04-21T14:10:44.161Z,49.1
2023-04-21T14:16:03.022Z,48.7
2023-04-21T14:21:21.165Z,49
2023-04-21T14:26:39.718Z,49.2
2023-04-21T14:31:58.935Z,49.4
2023-04-21T14:37:17.808Z,49
2023-04-21T14:42:36.014Z,48.7
2023-04-21T14:47:55.141Z,50.1
2023-04-21T14:53:13.993Z,49.3
2023-04-21T14:58:32.465Z,50.6
2023-04-21T15:03:51.465Z,50.1
2023-04-21T15:09:09.813Z,51
2023-04-21T15:14:27.985Z,50.6
2023-04-21T15:19:46.324Z,50.9
2023-04-21T15:25:04.861Z,51
2023-04-21T15:30:23.715Z,51.5
2023-04-21T15:35:42.150Z,50.6
2023-04-21T15:41:02.315Z,50.3
2023-04-21T15:46:20.914Z,50.4
2023-04-21T15:51:39.217Z,50
2023-04-21T15:56:57.783Z,50
2023-04-21T16:02:16.401Z,49.8
2023-04-21T16:07:34.803Z,50.8
2023-04-21T16:12:53.325Z,49.9
2023-04-21T16:18:12.015Z,50.6
2023-04-21T16:23:30.019Z,49.8
2023-04-21T16:28:48.471Z,50.6
2023-04-21T16:34:07.022Z,50.2
2023-04-21T16:39:25.223Z,49.8
2023-04-21T16:44:43.854Z,50
2023-04-21T16:50:03.673Z,50.5
2023-04-21T16:55:21.775Z,50.6
2023-04-21T17:00:40.286Z,49.8
2023-04-21T17:05:58.715Z,50.1
2023-04-21T17:11:17.191Z,50.6
2023-04-21T17:16:36.048Z,50
2023-04-21T17:21:54.593Z,50.4
2023-04-21T17:27:12.685Z,49.9
2023-04-21T17:32:35.154Z,49.3
2023-04-21T17:37:53.441Z,49
2023-04-21T17:43:11.434Z,49.3
2023-04-21T17:48:29.957Z,48.6
2023-04-21T17:53:48.166Z,48.6
2023-04-21T17:59:07.094Z,48.4
2023-04-21T18:04:25.809Z,48.1
2023-04-21T18:09:43.966Z,47.4
2023-04-21T18:15:01.991Z,48.2
2023-04-21T18:20:20.444Z,47.7
2023-04-21T18:25:43.908Z,47.9
2023-04-21T18:31:02.398Z,48.7
2023-04-21T18:36:20.565Z,49.5
2023-04-21T18:41:39.098Z,48.6
2023-04-21T18:46:58.018Z,49.4
2023-04-21T18:52:16.354Z,49.1
2023-04-21T18:57:34.867Z,48.9
2023-04-21T19:02:53.646Z,49.3
2023-04-21T19:08:12.456Z,48.9
2023-04-21T19:13:30.792Z,49.2
2023-04-21T19:18:49.475Z,49.3
2023-04-21T19:24:08.014Z,49.5
2023-04-21T19:29:26.333Z,48.9
2023-04-21T19:34:44.346Z,49.7
2023-04-21T19:40:02.981Z,49.5
2023-04-21T19:45:21.564Z,49.1
2023-04-21T19:50:40.023Z,49.3
2023-04-21T19:55:58.019Z,49.6
2023-04-21T20:01:01.082Z,48.9
2023-04-21T20:06:21.725Z,49.2
2023-04-21T20:11:40.213Z,49.4
2023-04-21T20:16:58.428Z,49.3
2023-04-21T20:22:16.718Z,48.5
2023-04-21T20:27:34.873Z,49.9
2023-04-21T20:32:53.289Z,50
2023-04-21T20:38:11.686Z,49.1
2023-04-21T20:43:29.662Z,48.9
2023-04-21T20:48:48.179Z,50
2023-04-21T20:54:06.387Z,49.2
2023-04-21T20:59:24.321Z,48.9
2023-04-21T21:04:42.656Z,49.6
2023-04-21T21:10:01.226Z,49.7
2023-04-21T21:15:19.405Z,50
2023-04-21T21:20:37.835Z,48.6
2023-04-21T21:25:56.019Z,48.1
2023-04-21T21:31:14.354Z,48.7
2023-04-21T21:36:32.670Z,49.5
2023-04-21T21:41:50.895Z,49.9
2023-04-21T21:47:09.255Z,49.6
2023-04-21T21:52:27.385Z,49.7
2023-04-21T21:57:45.569Z,50.7
2023-04-21T22:03:03.989Z,50.8
2023-04-21T22:08:22.490Z,50.7
2023-04-21T22:13:40.632Z,50.5
2023-04-21T22:18:59.012Z,50.9
2023-04-21T22:24:17.453Z,51.1
2023-04-21T22:29:36.842Z,50.8
2023-04-21T22:34:55.442Z,50.3
2023-04-21T22:40:13.974Z,50.2
2023-04-21T22:45:32.432Z,50.4
2023-04-21T22:50:50.983Z,51.2
2023-04-21T22:56:09.094Z,50.7
2023-04-21T23:01:27.535Z,51.1
2023-04-21T23:06:45.927Z,50.7
2023-04-21T23:12:04.466Z,51.3
2023-04-21T23:17:23.076Z,51.2
2023-04-21T23:22:41.131Z,51.6
2023-04-21T23:28:02.238Z,51.4
2023-04-21T23:33:20.677Z,50.6
2023-04-21T23:38:38.824Z,50.6
2023-04-21T23:43:57.186Z,50.5
2023-04-21T23:49:15.457Z,50.9
2023-04-21T23:54:33.861Z,51.7
2023-04-21T23:59:51.825Z,51.6
